Time;durP1;ratioP1;P1;durP2;ratioP2;P2;SDS_P1;SDS_P2;PMS_P1;PMS_P2;Temp;Humidity;BMP_temperature;BMP_pressure;BME280_temperature;BME280_humidity;BME280_pressure;Samples;Min_cycle;Max_cycle;Signal;HPM_P1;HPM_P2
2021/05/18 00:00:15;;;;;;;16.83;10.23;;;9.90;99.90;;;;;;5015347;28;20328;-67
2021/05/18 00:02:41;;;;;;;15.23;10.95;;;9.90;99.90;;;;;;5001107;28;20047;-67
2021/05/18 00:05:11;;;;;;;14.38;9.95;;;9.90;99.90;;;;;;4997474;28;20133;-67
2021/05/18 00:07:39;;;;;;;15.07;10.43;;;9.90;99.90;;;;;;5003355;28;20069;-67
2021/05/18 00:12:54;;;;;;;13.63;8.73;;;9.90;99.90;;;;;;5003792;28;20042;-67
2021/05/18 00:15:21;;;;;;;14.68;9.82;;;10.00;99.90;;;;;;5003862;28;20053;-67
2021/05/18 00:17:48;;;;;;;14.95;9.65;;;9.90;99.90;;;;;;5001996;28;20046;-67
2021/05/18 00:20:37;;;;;;;13.25;9.23;;;9.90;99.90;;;;;;5000131;28;20065;-67
2021/05/18 00:23:05;;;;;;;14.68;9.52;;;9.90;99.90;;;;;;5004054;28;20530;-67
2021/05/18 00:25:32;;;;;;;17.42;11.10;;;9.90;99.90;;;;;;5002628;28;20052;-67
2021/05/18 00:27:57;;;;;;;15.52;11.10;;;9.90;99.90;;;;;;5003089;28;20046;-68
2021/05/18 00:30:24;;;;;;;14.90;9.57;;;10.00;99.90;;;;;;5003636;28;20172;-68
2021/05/18 00:32:50;;;;;;;15.85;10.35;;;9.90;99.90;;;;;;5003795;28;20038;-67
2021/05/18 00:35:17;;;;;;;11.82;9.15;;;9.80;99.90;;;;;;5003789;28;20047;-67
2021/05/18 00:37:43;;;;;;;14.35;10.18;;;9.80;99.90;;;;;;5002854;28;20209;-67
2021/05/18 00:40:13;;;;;;;20.77;11.18;;;9.80;99.90;;;;;;5003423;28;20518;-67
2021/05/18 00:42:53;;;;;;;12.45;10.32;;;9.70;99.90;;;;;;5003939;28;20077;-67
2021/05/18 00:45:31;;;;;;;14.95;10.25;;;9.70;99.90;;;;;;5003371;28;20138;-67
2021/05/18 00:47:58;;;;;;;14.88;9.95;;;9.70;99.90;;;;;;5004395;28;20050;-68
2021/05/18 00:50:25;;;;;;;13.77;10.10;;;9.70;99.90;;;;;;5006705;28;20042;-67
2021/05/18 00:52:51;;;;;;;13.13;10.55;;;9.60;99.90;;;;;;5007306;28;20336;-67
2021/05/18 00:55:30;;;;;;;20.92;11.13;;;9.60;99.90;;;;;;5004096;28;20069;-67
2021/05/18 01:00:44;;;;;;;14.70;10.15;;;9.60;99.90;;;;;;5006959;28;20053;-67
2021/05/18 01:03:10;;;;;;;16.42;9.50;;;9.60;99.90;;;;;;5006540;28;20074;-67
2021/05/18 01:08:22;;;;;;;16.55;10.50;;;9.50;99.90;;;;;;5006115;28;20542;-67
2021/05/18 01:10:48;;;;;;;16.38;10.32;;;9.50;99.90;;;;;;5004652;28;20052;-67
2021/05/18 01:13:14;;;;;;;16.73;10.88;;;9.50;99.90;;;;;;5001832;28;20043;-68
2021/05/18 01:15:39;;;;;;;13.43;10.18;;;9.50;99.90;;;;;;5006087;28;20530;-67
2021/05/18 01:18:06;;;;;;;14.38;10.07;;;9.40;99.90;;;;;;5006089;28;20049;-67
2021/05/18 01:20:36;;;;;;;14.15;10.77;;;9.40;99.90;;;;;;5005844;28;20041;-67
2021/05/18 01:23:02;;;;;;;14.93;10.27;;;9.40;99.90;;;;;;5005858;28;20081;-67
2021/05/18 01:25:28;;;;;;;15.50;11.07;;;9.40;99.90;;;;;;5004412;28;20057;-67
2021/05/18 01:27:53;;;;;;;13.57;9.65;;;9.40;99.90;;;;;;5006100;28;20050;-67
2021/05/18 01:30:19;;;;;;;14.18;10.35;;;9.40;99.90;;;;;;5005545;28;20168;-67
2021/05/18 01:32:48;;;;;;;17.80;10.80;;;9.40;99.90;;;;;;4999742;28;20046;-68
2021/05/18 01:35:14;;;;;;;13.10;10.85;;;9.30;99.90;;;;;;5001184;28;20057;-67
2021/05/18 01:37:41;;;;;;;14.63;11.68;;;9.30;99.90;;;;;;5006239;28;20050;-67
2021/05/18 01:42:49;;;;;;;13.52;10.00;;;9.20;99.90;;;;;;5005102;28;20114;-67
2021/05/18 01:45:17;;;;;;;15.80;10.57;;;9.10;99.90;;;;;;5005578;28;20054;-67
2021/05/18 01:47:53;;;;;;;16.92;9.45;;;9.10;99.90;;;;;;5005608;28;20046;-67
2021/05/18 01:50:22;;;;;;;17.20;11.60;;;9.10;99.90;;;;;;5004735;28;20042;-67
2021/05/18 01:52:48;;;;;;;16.48;10.95;;;9.00;99.90;;;;;;5006117;28;20053;-67
2021/05/18 01:55:20;;;;;;;14.90;9.77;;;9.00;99.90;;;;;;5005324;28;20414;-67
2021/05/18 01:57:46;;;;;;;17.08;10.35;;;8.90;99.90;;;;;;5004826;28;20046;-67
2021/05/18 02:00:14;;;;;;;16.25;11.15;;;8.90;99.90;;;;;;5003360;28;20054;-67
2021/05/18 02:02:41;;;;;;;16.60;10.30;;;8.80;99.90;;;;;;5004853;28;20057;-67
2021/05/18 02:05:10;;;;;;;13.18;9.93;;;8.80;99.90;;;;;;5005500;28;20077;-67
2021/05/18 02:07:38;;;;;;;15.18;10.10;;;8.80;99.90;;;;;;5000862;28;20057;-67
2021/05/18 02:10:10;;;;;;;12.13;9.05;;;8.80;99.90;;;;;;5002782;28;20098;-67
2021/05/18 02:12:37;;;;;;;17.05;10.80;;;8.80;99.90;;;;;;5005456;28;20106;-67
2021/05/18 02:15:23;;;;;;;17.13;10.13;;;8.70;99.90;;;;;;5003213;28;20039;-67
2021/05/18 02:26:25;;;;;;;17.13;10.63;;;8.60;99.90;;;;;;5005181;28;20105;-67
2021/05/18 02:28:51;;;;;;;15.82;10.57;;;8.50;99.90;;;;;;5003835;28;20049;-67
2021/05/18 02:31:18;;;;;;;13.93;8.85;;;8.50;99.90;;;;;;4998947;28;20047;-67
2021/05/18 02:33:51;;;;;;;16.73;10.35;;;8.50;99.90;;;;;;4999881;28;20089;-68
2021/05/18 02:36:21;;;;;;;16.50;10.40;;;8.50;99.90;;;;;;5003194;28;20046;-68
2021/05/18 02:38:47;;;;;;;13.63;10.52;;;8.40;99.90;;;;;;4997631;28;20046;-67
2021/05/18 02:41:13;;;;;;;14.40;10.07;;;8.40;99.90;;;;;;4992819;28;20053;-68
2021/05/18 02:43:45;;;;;;;16.13;10.25;;;8.40;99.90;;;;;;5001777;28;20494;-68
2021/05/18 02:49:09;;;;;;;13.23;10.15;;;8.30;99.90;;;;;;4992628;28;20057;-67
2021/05/18 02:51:41;;;;;;;14.45;10.70;;;8.20;99.90;;;;;;5001843;28;20129;-67
2021/05/18 02:54:09;;;;;;;15.35;10.48;;;8.20;99.90;;;;;;4987392;28;20050;-67
2021/05/18 02:56:43;;;;;;;13.73;11.13;;;8.20;99.90;;;;;;4996026;28;20050;-68
2021/05/18 02:59:16;;;;;;;18.70;11.35;;;8.30;99.90;;;;;;5004193;28;20046;-68
2021/05/18 03:01:44;;;;;;;15.75;11.40;;;8.20;99.90;;;;;;4999581;28;20038;-67
2021/05/18 03:04:10;;;;;;;19.60;12.65;;;8.20;99.90;;;;;;5004629;28;20053;-67
2021/05/18 03:06:38;;;;;;;18.52;11.45;;;8.10;99.90;;;;;;5003865;28;20052;-67
2021/05/18 03:09:13;;;;;;;19.13;11.88;;;8.10;99.90;;;;;;5003380;28;20049;-67
2021/05/18 03:11:40;;;;;;;18.20;11.48;;;8.10;99.90;;;;;;4998385;28;20050;-67
2021/05/18 03:14:07;;;;;;;19.55;12.70;;;8.00;99.90;;;;;;5003045;28;20130;-68
2021/05/18 03:16:34;;;;;;;19.25;13.07;;;7.90;99.90;;;;;;5004011;28;20125;-68
2021/05/18 03:19:01;;;;;;;15.82;11.35;;;7.90;99.90;;;;;;5002542;28;20046;-68
2021/05/18 03:21:27;;;;;;;18.40;11.95;;;7.80;99.90;;;;;;4992510;28;20050;-67
2021/05/18 03:23:53;;;;;;;18.58;11.63;;;7.80;99.90;;;;;;4999036;28;20049;-68
2021/05/18 03:26:19;;;;;;;20.80;12.32;;;7.70;99.90;;;;;;5004179;28;20051;-68
2021/05/18 03:28:47;;;;;;;16.98;12.38;;;7.70;99.90;;;;;;5004008;28;20049;-67
2021/05/18 03:36:43;;;;;;;16.15;11.60;;;7.80;99.90;;;;;;4989455;28;20066;-67
2021/05/18 03:39:08;;;;;;;14.88;11.07;;;7.70;99.90;;;;;;4998282;28;20042;-66
2021/05/18 03:41:42;;;;;;;23.58;13.02;;;7.70;99.90;;;;;;5003140;28;20453;-66
2021/05/18 04:03:13;;;;;;;23.95;12.00;;;7.70;99.90;;;;;;4915122;29;20185;-67
2021/05/18 04:19:10;;;;;;;19.83;13.05;;;7.60;99.90;;;;;;4913516;29;20048;-67
2021/05/18 04:49:07;;;;;;;16.67;10.65;;;7.90;99.90;;;;;;4960759;28;20050;-68
2021/05/18 04:51:44;;;;;;;14.15;10.52;;;8.00;99.90;;;;;;4968018;28;20043;-68
2021/05/18 04:59:57;;;;;;;16.60;11.50;;;8.30;99.90;;;;;;4965174;28;20058;-68
2021/05/18 05:07:58;;;;;;;13.85;9.65;;;8.70;99.90;;;;;;4972974;28;20055;-68
2021/05/18 05:15:43;;;;;;;12.57;8.73;;;9.20;99.90;;;;;;4961497;28;20215;-68
2021/05/18 05:18:10;;;;;;;10.00;7.97;;;9.30;99.90;;;;;;4965128;28;20082;-68
2021/05/18 05:20:36;;;;;;;12.25;8.45;;;9.30;99.90;;;;;;4948629;29;20043;-68
2021/05/18 05:23:03;;;;;;;12.73;9.15;;;9.30;99.90;;;;;;5001906;28;20065;-68
2021/05/18 05:25:29;;;;;;;10.88;8.77;;;9.40;99.90;;;;;;5004883;28;20046;-68
2021/05/18 05:27:55;;;;;;;12.60;8.38;;;9.40;99.90;;;;;;5006092;28;20415;-68
2021/05/18 05:30:21;;;;;;;11.15;8.43;;;9.30;99.90;;;;;;5004050;28;20862;-68
2021/05/18 05:32:47;;;;;;;10.73;7.50;;;9.40;99.90;;;;;;5005800;28;20038;-68
2021/05/18 05:35:13;;;;;;;15.20;9.05;;;9.40;99.90;;;;;;5004091;28;20117;-68
2021/05/18 05:37:39;;;;;;;10.27;7.55;;;9.50;99.90;;;;;;5005056;28;20038;-68
2021/05/18 05:40:06;;;;;;;11.88;7.45;;;9.60;99.90;;;;;;5003116;28;20076;-68
2021/05/18 05:42:32;;;;;;;13.70;8.85;;;9.60;99.90;;;;;;5003272;28;20046;-68
2021/05/18 05:44:58;;;;;;;11.32;8.32;;;9.70;99.90;;;;;;5000539;28;20035;-68
2021/05/18 05:47:24;;;;;;;10.73;8.40;;;9.80;99.90;;;;;;5005836;28;20046;-65
2021/05/18 05:49:50;;;;;;;8.57;6.60;;;9.90;99.90;;;;;;5007864;28;20046;-65
2021/05/18 05:52:20;;;;;;;14.30;6.55;;;10.00;99.90;;;;;;5004455;28;20046;-68
2021/05/18 05:54:47;;;;;;;11.00;6.60;;;10.10;99.90;;;;;;5004723;28;20132;-67
2021/05/18 05:57:13;;;;;;;11.52;7.38;;;10.30;99.90;;;;;;5005145;28;20042;-65
2021/05/18 05:59:38;;;;;;;22.15;6.60;;;10.30;99.90;;;;;;5004930;28;20491;-66
2021/05/18 06:02:04;;;;;;;11.35;5.63;;;10.60;99.90;;;;;;5005332;28;20050;-65
2021/05/18 06:04:31;;;;;;;8.55;5.85;;;10.80;99.90;;;;;;5016688;28;20066;-65
2021/05/18 06:06:57;;;;;;;8.25;6.20;;;10.90;99.90;;;;;;4999450;28;20103;-66
2021/05/18 06:09:23;;;;;;;8.02;6.30;;;11.10;99.90;;;;;;5004446;28;20043;-66
2021/05/18 06:49:19;;;;;;;5.40;4.85;;;13.10;99.90;;;;;;5003433;28;20042;-67
2021/05/18 06:51:45;;;;;;;4.70;4.20;;;13.00;99.90;;;;;;5004035;28;20129;-67
2021/05/18 06:54:11;;;;;;;4.70;4.10;;;12.80;99.90;;;;;;5003533;28;20049;-67
2021/05/18 06:56:38;;;;;;;5.85;4.63;;;12.40;99.90;;;;;;5003887;28;20042;-67
2021/05/18 07:01:30;;;;;;;5.80;3.90;;;12.30;99.90;;;;;;4999322;28;20545;-67
2021/05/18 07:03:58;;;;;;;6.70;4.05;;;12.60;99.90;;;;;;5003748;28;20055;-67
2021/05/18 07:09:08;;;;;;;5.03;3.63;;;12.50;99.90;;;;;;4992338;28;20073;-67
2021/05/18 07:11:34;;;;;;;5.78;4.10;;;12.50;99.90;;;;;;4998727;28;20034;-67
2021/05/18 07:14:00;;;;;;;7.68;5.18;;;12.60;99.90;;;;;;5000425;28;20050;-68
2021/05/18 07:16:26;;;;;;;8.45;4.97;;;12.50;99.90;;;;;;5001507;28;20058;-68
2021/05/18 07:18:52;;;;;;;5.93;4.43;;;12.40;99.90;;;;;;5002171;28;20121;-68
2021/05/18 07:21:20;;;;;;;6.47;3.95;;;12.30;99.90;;;;;;5003421;28;20394;-67
2021/05/18 07:23:46;;;;;;;6.00;4.53;;;12.50;99.90;;;;;;4999925;28;20038;-68
2021/05/18 07:26:12;;;;;;;9.27;4.95;;;12.70;99.90;;;;;;5002867;28;20081;-68
2021/05/18 07:28:37;;;;;;;6.10;4.80;;;12.70;99.90;;;;;;4994558;28;20054;-68
2021/05/18 07:31:05;;;;;;;6.90;4.28;;;12.60;99.90;;;;;;5010577;28;20042;-69
2021/05/18 07:33:32;;;;;;;7.75;5.20;;;12.70;99.90;;;;;;4999386;28;20058;-62
2021/05/18 07:36:01;;;;;;;6.63;5.05;;;12.80;99.90;;;;;;4997529;28;20071;-65
2021/05/18 07:38:27;;;;;;;8.43;5.40;;;12.80;99.90;;;;;;5001809;28;20046;-61
2021/05/18 07:40:56;;;;;;;7.73;5.23;;;12.80;99.90;;;;;;4997426;28;20057;-65
2021/05/18 07:43:22;;;;;;;5.75;4.82;;;12.80;99.90;;;;;;5000130;28;20050;-63
2021/05/18 07:45:59;;;;;;;5.95;4.50;;;12.70;99.90;;;;;;4997199;28;20076;-62
2021/05/18 07:48:45;;;;;;;5.03;4.53;;;12.60;99.90;;;;;;4991066;28;20102;-64
2021/05/18 07:59:38;;;;;;;4.55;3.90;;;13.00;99.90;;;;;;4962118;28;20059;-64
2021/05/18 08:07:19;;;;;;;5.15;4.65;;;12.90;99.90;;;;;;4961039;28;20058;-64
2021/05/18 08:09:48;;;;;;;6.45;4.30;;;13.10;99.90;;;;;;4962884;28;20103;-64
2021/05/18 08:12:14;;;;;;;5.63;5.05;;;13.20;99.90;;;;;;4967158;28;20047;-64
2021/05/18 08:14:53;;;;;;;6.63;5.00;;;13.30;99.90;;;;;;4966280;28;20047;-64
2021/05/18 10:22:34;;;;;;;11.05;5.45;;;10.80;99.90;;;;;;5002203;28;20038;-70
2021/05/18 10:35:48;;;;;;;6.22;5.15;;;11.10;99.90;;;;;;5001321;28;20061;-59
2021/05/18 10:38:23;;;;;;;5.63;4.35;;;11.30;99.90;;;;;;5003579;28;20042;-63
2021/05/18 10:40:51;;;;;;;7.15;5.60;;;11.30;99.90;;;;;;5002945;28;20048;-65
2021/05/18 10:43:22;;;;;;;6.55;4.15;;;11.60;99.90;;;;;;5002411;28;20050;-66
2021/05/18 10:48:32;;;;;;;5.65;4.82;;;11.40;99.90;;;;;;5000961;28;20045;-61
2021/05/18 10:50:58;;;;;;;6.68;5.47;;;11.40;99.90;;;;;;5002631;28;20057;-62
2021/05/18 10:53:26;;;;;;;5.93;5.22;;;11.60;99.90;;;;;;4998807;28;20056;-61
2021/05/18 10:56:08;;;;;;;6.63;5.07;;;11.80;99.90;;;;;;4996485;28;20062;-61
2021/05/18 10:58:34;;;;;;;6.25;5.00;;;12.40;99.90;;;;;;4998295;28;21843;-62
2021/05/18 11:01:04;;;;;;;5.60;4.88;;;12.60;99.90;;;;;;5001552;28;20088;-61
2021/05/18 11:03:34;;;;;;;6.03;4.85;;;13.20;99.90;;;;;;4997462;28;20059;-61
2021/05/18 11:06:09;;;;;;;7.55;4.70;;;13.20;99.90;;;;;;4996838;28;20042;-62
2021/05/18 11:08:35;;;;;;;7.50;4.65;;;13.20;99.90;;;;;;4998759;28;20050;-62
2021/05/18 11:11:04;;;;;;;5.03;4.53;;;13.50;99.90;;;;;;4997795;28;20147;-61
2021/05/18 11:13:31;;;;;;;5.15;4.15;;;13.80;99.90;;;;;;4998305;28;20529;-59
2021/05/18 11:15:57;;;;;;;5.32;4.63;;;14.00;99.90;;;;;;4997241;28;20294;-59
2021/05/18 11:18:31;;;;;;;6.07;3.95;;;13.80;99.90;;;;;;4997506;28;20121;-61
2021/05/18 11:21:08;;;;;;;5.60;4.68;;;14.00;99.90;;;;;;4998009;28;20391;-58
2021/05/18 11:23:34;;;;;;;8.23;4.60;;;14.00;99.90;;;;;;4997059;28;20045;-58
2021/05/18 11:26:08;;;;;;;8.05;4.13;;;14.00;99.90;;;;;;4997102;28;20042;-57
2021/05/18 11:28:45;;;;;;;7.07;4.50;;;13.90;99.90;;;;;;4997349;28;20140;-60
2021/05/18 11:31:30;;;;;;;6.18;4.65;;;13.90;99.90;;;;;;4991830;28;20249;-60
2021/05/18 11:34:02;;;;;;;5.70;4.22;;;13.80;99.90;;;;;;4996787;28;20054;-60
2021/05/18 11:36:34;;;;;;;5.05;4.50;;;13.60;99.90;;;;;;4994869;28;20046;-59
2021/05/18 11:39:15;;;;;;;4.63;4.15;;;13.40;99.90;;;;;;4995592;28;20050;-58
2021/05/18 11:41:42;;;;;;;7.78;5.10;;;13.30;99.90;;;;;;4996039;28;20058;-60
2021/05/18 11:44:10;;;;;;;6.40;4.53;;;13.20;99.90;;;;;;4996397;28;20118;-59
2021/05/18 11:46:43;;;;;;;7.18;5.43;;;13.20;99.90;;;;;;4996119;28;20041;-59
2021/05/18 11:49:11;;;;;;;7.70;5.65;;;13.50;99.90;;;;;;4994501;28;20236;-61
2021/05/18 11:51:39;;;;;;;;;;;13.60;99.90;;;;;;4996411;28;20046;-59
2021/05/18 11:54:07;;;;;;;6.85;5.15;;;13.70;99.90;;;;;;4993438;28;19922;-61
2021/05/18 11:56:38;;;;;;;8.75;5.85;;;14.00;99.90;;;;;;4993090;28;20050;-62
2021/05/18 11:59:12;;;;;;;7.57;5.30;;;14.20;99.90;;;;;;4996860;28;20110;-61
2021/05/18 12:01:48;;;;;;;6.85;4.75;;;14.70;99.90;;;;;;4994579;28;20070;-64
2021/05/18 12:04:24;;;;;;;5.20;3.97;;;14.80;99.90;;;;;;4998206;28;20626;-64
2021/05/18 12:06:57;;;;;;;4.72;3.67;;;14.60;99.90;;;;;;4995518;28;20081;-64
2021/05/18 12:09:24;;;;;;;4.20;3.63;;;14.50;99.90;;;;;;5011639;28;20101;-65
2021/05/18 12:11:54;;;;;;;6.22;4.10;;;14.50;99.90;;;;;;4998216;28;20125;-63
2021/05/18 12:14:20;;;;;;;5.00;3.83;;;14.50;99.90;;;;;;4997423;28;20120;-61
2021/05/18 12:16:46;;;;;;;6.93;4.50;;;14.60;99.90;;;;;;4995897;28;20093;-60
2021/05/18 12:19:16;;;;;;;6.28;4.30;;;14.50;99.90;;;;;;4996907;28;20049;-60
2021/05/18 12:21:46;;;;;;;5.00;4.28;;;14.50;99.90;;;;;;4995476;28;20405;-60
2021/05/18 12:24:13;;;;;;;4.72;3.85;;;14.40;99.90;;;;;;4993582;28;20054;-60
2021/05/18 12:26:47;;;;;;;7.20;4.47;;;14.20;99.90;;;;;;4993986;28;20057;-62
2021/05/18 12:29:36;;;;;;;5.57;4.57;;;14.30;99.90;;;;;;4999462;28;20050;-62
2021/05/18 12:32:20;;;;;;;5.47;4.50;;;14.30;99.90;;;;;;4997094;28;20073;-61
2021/05/18 12:34:52;;;;;;;5.15;4.60;;;14.40;99.90;;;;;;4994495;28;20046;-61
2021/05/18 12:37:31;;;;;;;6.00;5.03;;;14.80;99.90;;;;;;4996333;28;20058;-61
2021/05/18 12:39:56;;;;;;;6.07;4.68;;;15.50;99.90;;;;;;4997464;28;20046;-61
2021/05/18 12:42:28;;;;;;;6.00;4.80;;;15.70;99.90;;;;;;4996264;28;20101;-61
2021/05/18 12:45:03;;;;;;;7.07;4.93;;;14.90;99.90;;;;;;4999833;28;20046;-62
2021/05/18 12:47:35;;;;;;;7.55;5.90;;;14.60;99.90;;;;;;4999364;28;20061;-61
2021/05/18 12:50:05;;;;;;;6.30;5.15;;;14.30;99.90;;;;;;4998571;28;20046;-60
2021/05/18 12:52:44;;;;;;;7.68;5.30;;;14.20;99.90;;;;;;4999737;28;20092;-63
2021/05/18 12:55:15;;;;;;;6.20;4.90;;;14.30;99.90;;;;;;4998098;28;20043;-59
2021/05/18 12:57:56;;;;;;;5.72;4.32;;;14.00;99.90;;;;;;4997605;28;20122;-64
2021/05/18 13:00:44;;;;;;;6.18;4.80;;;14.00;99.90;;;;;;4999494;28;20611;-62
2021/05/18 13:03:17;;;;;;;6.45;5.25;;;14.20;99.90;;;;;;4999313;28;20048;-63
2021/05/18 13:05:51;;;;;;;6.15;4.30;;;14.20;99.90;;;;;;5002096;28;20052;-60
2021/05/18 13:08:29;;;;;;;5.07;4.57;;;14.40;99.90;;;;;;5002948;28;20046;-59
2021/05/18 13:12:10;;;;;;;6.25;5.50;;;14.10;99.90;;;;;;4997235;28;20453;-60
2021/05/18 13:14:00;;;;;;;8.45;5.10;;;13.90;99.90;;;;;;4999170;28;20042;-59
2021/05/18 13:16:32;;;;;;;8.00;5.38;;;14.10;99.90;;;;;;4998920;28;20562;-59
2021/05/18 13:19:06;;;;;;;8.07;4.85;;;14.30;99.90;;;;;;4997240;28;20046;-60
2021/05/18 13:21:48;;;;;;;6.95;4.38;;;14.80;99.90;;;;;;4999074;28;20050;-59
2021/05/18 13:26:59;;;;;;;5.95;4.80;;;16.00;99.90;;;;;;4998386;28;20049;-59
2021/05/18 13:29:25;;;;;;;5.78;3.95;;;16.20;99.90;;;;;;4999261;28;20069;-59
2021/05/18 13:31:53;;;;;;;6.45;4.53;;;15.20;99.90;;;;;;4999148;28;20056;-59
2021/05/18 13:34:19;;;;;;;5.68;3.85;;;15.20;99.90;;;;;;4999675;28;20046;-60
2021/05/18 13:36:47;;;;;;;5.55;4.60;;;15.00;99.90;;;;;;5000362;28;20487;-60
2021/05/18 13:39:16;;;;;;;6.47;4.07;;;16.00;99.90;;;;;;4993889;28;20051;-59
2021/05/18 13:41:43;;;;;;;6.55;4.45;;;16.00;99.90;;;;;;4994488;28;20054;-59
2021/05/18 13:44:09;;;;;;;5.47;4.00;;;15.40;99.90;;;;;;4995145;28;20117;-62
2021/05/18 13:46:36;;;;;;;4.72;4.05;;;15.40;99.90;;;;;;4994929;28;21275;-59
2021/05/18 13:49:02;;;;;;;6.57;4.10;;;15.60;99.90;;;;;;4995918;28;20562;-59
2021/05/18 13:51:29;;;;;;;6.17;4.27;;;16.10;99.90;;;;;;4994893;28;21453;-59
2021/05/18 13:53:55;;;;;;;5.63;4.07;;;15.70;99.90;;;;;;4992662;28;20629;-59
2021/05/18 13:56:23;;;;;;;5.25;4.30;;;15.70;99.90;;;;;;4993706;28;20108;-60
2021/05/18 13:58:49;;;;;;;;;;;15.20;99.90;;;;;;4992985;28;20053;-59
2021/05/18 14:01:15;;;;;;;10.38;4.50;;;15.40;99.90;;;;;;4995722;28;19925;-60
2021/05/18 14:03:41;;;;;;;6.25;4.20;;;15.80;99.90;;;;;;4991833;28;20081;-60
2021/05/18 14:06:07;;;;;;;7.60;3.90;;;15.90;99.90;;;;;;4999630;28;20125;-60
2021/05/18 14:08:34;;;;;;;8.80;4.05;;;16.20;99.90;;;;;;4997410;28;20046;-60
2021/05/18 14:11:23;;;;;;;4.70;3.45;;;16.00;99.90;;;;;;4996363;28;20042;-60
2021/05/18 14:13:51;;;;;;;6.70;4.32;;;15.40;99.90;;;;;;4996725;28;20042;-60
2021/05/18 14:16:19;;;;;;;5.38;4.32;;;15.70;99.90;;;;;;4995290;28;20057;-60
2021/05/18 14:18:53;;;;;;;6.20;4.45;;;15.50;99.90;;;;;;4999512;28;20058;-60
2021/05/18 14:21:20;;;;;;;5.78;3.70;;;16.60;99.90;;;;;;4997654;28;20094;-63
2021/05/18 14:26:29;;;;;;;5.47;4.53;;;16.70;99.90;;;;;;4996715;28;20509;-60
2021/05/18 14:28:55;;;;;;;6.85;4.28;;;16.70;99.90;;;;;;4994823;28;20050;-61
2021/05/18 14:31:23;;;;;;;6.15;4.00;;;17.60;99.90;;;;;;4997955;28;20100;-60
2021/05/18 14:33:49;;;;;;;6.30;4.55;;;18.60;99.90;;;;;;4995687;28;20046;-60
2021/05/18 14:36:15;;;;;;;4.90;4.30;;;18.30;98.70;;;;;;4993662;28;20054;-60
2021/05/18 14:38:43;;;;;;;6.40;4.35;;;18.60;99.50;;;;;;4995062;28;20062;-60
2021/05/18 14:44:07;;;;;;;6.35;3.80;;;19.00;99.90;;;;;;4996942;28;20057;-60
2021/05/18 14:57:09;;;;;;;7.22;5.03;;;16.30;99.90;;;;;;4996741;28;20053;-62
2021/05/18 14:59:35;;;;;;;5.38;4.88;;;15.60;99.90;;;;;;5011408;28;20056;-61
2021/05/18 15:02:00;;;;;;;5.22;4.70;;;15.60;99.90;;;;;;4999006;28;20135;-62
2021/05/18 15:04:27;;;;;;;5.07;4.10;;;16.40;99.90;;;;;;5000028;28;20101;-61
2021/05/18 15:06:53;;;;;;;6.75;5.28;;;16.20;99.90;;;;;;4996383;28;20058;-60
2021/05/18 15:09:18;;;;;;;5.57;4.43;;;16.00;99.90;;;;;;4996759;28;20042;-62
2021/05/18 15:11:44;;;;;;;4.88;4.30;;;15.50;99.90;;;;;;4995724;28;20049;-59
2021/05/18 15:14:10;;;;;;;4.47;3.83;;;15.50;99.90;;;;;;4998868;28;20120;-59
2021/05/18 15:16:36;;;;;;;4.80;4.00;;;16.10;99.90;;;;;;5003057;28;20050;-59
2021/05/18 15:19:14;;;;;;;7.18;4.80;;;16.20;99.90;;;;;;5001237;28;20919;-63
2021/05/18 15:21:40;;;;;;;;;;;16.00;99.90;;;;;;4999877;28;20050;-64
2021/05/18 15:24:06;;;;;;;5.93;3.83;;;15.60;99.90;;;;;;4999256;28;19922;-61
2021/05/18 15:26:34;;;;;;;5.18;3.88;;;15.70;99.90;;;;;;5001039;28;20031;-61
2021/05/18 15:29:00;;;;;;;5.72;3.80;;;15.10;99.90;;;;;;4999932;28;20069;-61
2021/05/18 15:31:27;;;;;;;5.70;4.47;;;15.30;99.90;;;;;;5001381;28;20049;-61
2021/05/18 15:33:52;;;;;;;5.57;4.60;;;15.50;99.90;;;;;;5001028;28;20042;-62
2021/05/18 15:36:19;;;;;;;7.78;5.25;;;16.20;99.90;;;;;;5002294;28;20093;-61
2021/05/18 15:38:47;;;;;;;5.68;4.65;;;15.80;99.90;;;;;;5002838;28;20111;-61
2021/05/18 15:41:13;;;;;;;5.68;4.50;;;16.00;99.90;;;;;;4996142;28;20050;-68
2021/05/18 15:43:40;;;;;;;6.07;4.60;;;15.70;99.90;;;;;;4999629;28;20042;-61
2021/05/18 15:46:05;;;;;;;5.05;4.30;;;16.20;99.90;;;;;;5002299;28;20047;-65
2021/05/18 15:48:32;;;;;;;5.45;4.35;;;16.40;99.90;;;;;;5003807;28;20081;-65
2021/05/18 15:50:58;;;;;;;5.00;4.13;;;16.20;99.90;;;;;;5003000;28;20050;-61
2021/05/18 15:53:24;;;;;;;7.00;4.30;;;16.40;99.90;;;;;;5002038;28;20101;-60
2021/05/18 15:55:50;;;;;;;5.55;4.93;;;16.40;99.80;;;;;;5002487;28;20042;-62
2021/05/18 15:58:16;;;;;;;7.38;5.05;;;15.90;99.90;;;;;;5000247;28;20049;-63
2021/05/18 16:00:42;;;;;;;7.10;5.63;;;16.10;99.90;;;;;;5001833;28;20132;-62
2021/05/18 16:03:08;;;;;;;11.20;5.90;;;15.80;99.90;;;;;;5000549;28;20410;-63
2021/05/18 16:05:34;;;;;;;8.80;5.88;;;15.50;99.90;;;;;;5002600;28;20044;-61
2021/05/18 16:08:58;;;;;;;6.25;5.65;;;15.50;99.90;;;;;;5002341;28;20046;-61
2021/05/18 16:10:58;;;;;;;7.40;5.43;;;15.40;99.90;;;;;;4998632;28;20073;-61
2021/05/18 16:13:24;;;;;;;8.35;5.70;;;15.50;99.90;;;;;;4998642;28;20038;-61
2021/05/18 16:15:49;;;;;;;5.35;4.75;;;15.30;99.90;;;;;;5001199;28;20577;-61
2021/05/18 16:18:15;;;;;;;9.68;5.35;;;15.00;99.90;;;;;;5004188;28;20137;-63
2021/05/18 16:20:41;;;;;;;8.02;6.13;;;14.80;99.90;;;;;;5007541;28;20042;-60
2021/05/18 16:23:09;;;;;;;7.82;6.78;;;15.00;99.90;;;;;;5006485;28;20047;-61
2021/05/18 16:25:35;;;;;;;9.93;6.30;;;14.60;99.90;;;;;;5006097;28;20138;-61
2021/05/18 16:28:01;;;;;;;8.48;6.28;;;14.70;99.90;;;;;;5005696;28;20046;-61
2021/05/18 16:30:27;;;;;;;7.45;5.97;;;14.80;99.90;;;;;;5005767;28;20125;-61
2021/05/18 16:32:53;;;;;;;6.88;5.63;;;14.80;99.90;;;;;;5000891;28;20050;-61
2021/05/18 16:35:18;;;;;;;5.97;5.30;;;14.90;99.90;;;;;;5002600;28;20047;-61
2021/05/18 16:37:44;;;;;;;6.43;5.32;;;15.20;99.90;;;;;;5002165;28;20050;-62
2021/05/18 16:40:10;;;;;;;7.72;5.07;;;14.90;99.90;;;;;;5018863;28;20421;-61
2021/05/18 16:42:37;;;;;;;9.23;5.50;;;15.00;99.90;;;;;;5004294;28;20062;-61
2021/05/18 16:45:05;;;;;;;6.18;4.88;;;15.40;99.90;;;;;;5003123;28;20043;-61
2021/05/18 16:47:32;;;;;;;5.47;4.85;;;15.80;99.90;;;;;;5002372;28;20053;-61
2021/05/18 16:49:58;;;;;;;7.65;5.78;;;15.80;99.90;;;;;;5006780;28;20062;-61
2021/05/18 16:52:24;;;;;;;7.00;5.40;;;15.90;99.90;;;;;;5002777;28;20074;-61
2021/05/18 16:54:50;;;;;;;6.63;5.07;;;15.80;99.90;;;;;;4999499;28;20313;-61
2021/05/18 16:57:16;;;;;;;6.22;5.63;;;15.60;99.90;;;;;;5004468;28;20121;-62
2021/05/18 16:59:41;;;;;;;6.47;5.30;;;15.50;99.90;;;;;;5003586;28;20109;-62
2021/05/18 17:02:07;;;;;;;6.22;5.35;;;15.30;99.90;;;;;;5004324;28;20062;-62
2021/05/18 17:04:33;;;;;;;7.20;5.63;;;15.30;99.90;;;;;;4999746;28;20057;-62
2021/05/18 17:07:01;;;;;;;6.10;5.50;;;15.20;99.90;;;;;;5004040;28;20061;-62
2021/05/18 17:09:28;;;;;;;7.28;6.13;;;15.10;99.90;;;;;;5002142;28;20311;-63
2021/05/18 17:11:54;;;;;;;9.15;5.55;;;15.40;99.90;;;;;;4999878;28;20038;-61
2021/05/18 17:14:22;;;;;;;7.95;5.72;;;14.90;99.90;;;;;;5004311;28;20045;-61
2021/05/18 17:16:48;;;;;;;6.30;5.68;;;15.00;99.90;;;;;;5001082;28;20058;-62
2021/05/18 17:19:13;;;;;;;7.03;5.60;;;14.90;99.90;;;;;;5003139;28;20050;-64
2021/05/18 17:21:40;;;;;;;8.43;6.05;;;14.90;99.90;;;;;;5019506;28;20143;-64
2021/05/18 17:24:12;;;;;;;9.70;5.82;;;14.50;99.90;;;;;;5003308;28;20050;-64
2021/05/18 17:26:38;;;;;;;10.13;6.32;;;14.40;99.90;;;;;;5003689;28;20434;-63
2021/05/18 17:29:05;;;;;;;7.57;5.82;;;13.90;99.90;;;;;;5004496;28;20038;-63
2021/05/18 17:31:31;;;;;;;8.40;5.47;;;14.30;99.90;;;;;;5003923;28;20062;-63
2021/05/18 17:33:57;;;;;;;7.63;4.95;;;14.40;99.90;;;;;;4998873;28;20057;-63
2021/05/18 17:36:25;;;;;;;8.07;6.03;;;14.20;99.90;;;;;;4999097;28;20054;-63
2021/05/18 17:38:51;;;;;;;7.53;6.70;;;14.20;99.90;;;;;;4999998;28;20227;-63
2021/05/18 17:41:21;;;;;;;9.50;6.63;;;14.30;99.90;;;;;;5000699;28;20356;-63
2021/05/18 17:43:49;;;;;;;9.07;6.75;;;14.20;99.90;;;;;;4993860;28;21411;-62
2021/05/18 17:46:15;;;;;;;8.23;7.30;;;14.20;99.90;;;;;;4996104;28;20098;-64
2021/05/18 17:48:42;;;;;;;8.88;7.10;;;14.10;99.90;;;;;;5002684;28;20069;-63
2021/05/18 17:51:08;;;;;;;7.75;6.88;;;14.00;99.90;;;;;;5000846;28;20053;-64
2021/05/18 17:53:33;;;;;;;8.52;6.38;;;13.90;99.90;;;;;;4997905;28;20050;-63
2021/05/18 17:55:59;;;;;;;8.15;6.80;;;13.90;99.90;;;;;;5000218;28;20054;-65
2021/05/18 17:58:25;;;;;;;8.32;6.88;;;13.70;99.90;;;;;;4995469;28;20051;-62
2021/05/18 18:00:51;;;;;;;8.52;7.32;;;13.70;99.90;;;;;;5002543;28;20061;-64
2021/05/18 18:03:18;;;;;;;7.90;6.47;;;13.70;99.90;;;;;;4998840;28;20073;-63
2021/05/18 18:05:45;;;;;;;7.28;6.38;;;13.70;99.90;;;;;;4998412;28;20945;-63
2021/05/18 18:08:11;;;;;;;11.40;7.55;;;13.50;99.90;;;;;;5017544;28;20038;-63
2021/05/18 18:10:39;;;;;;;9.52;6.95;;;13.60;99.90;;;;;;4998653;28;20112;-63